createdAt,value
2018-05-29T00:01:04.400Z,19.02
2018-05-29T00:06:09.740Z,18.91
2018-05-29T00:11:18.543Z,18.92
2018-05-29T00:16:24.026Z,18.79
2018-05-29T00:21:29.415Z,18.59
2018-05-29T00:26:34.812Z,18.38
2018-05-29T00:31:40.207Z,18.23
2018-05-29T00:36:52.264Z,18.18
2018-05-29T00:41:57.508Z,17.98
2018-05-29T00:47:03.902Z,17.83
2018-05-29T00:52:09.339Z,17.78
2018-05-29T00:57:15.671Z,17.78
2018-05-29T01:02:21.006Z,17.70
2018-05-29T01:07:29.625Z,17.58
2018-05-29T01:12:35.012Z,17.59
2018-05-29T01:17:40.461Z,17.40
2018-05-29T01:22:45.947Z,17.27
2018-05-29T01:27:51.506Z,17.13
2018-05-29T01:32:56.904Z,17.07
2018-05-29T01:38:09.975Z,16.89
2018-05-29T01:43:15.325Z,16.84
2018-05-29T01:48:20.810Z,16.78
2018-05-29T01:53:26.225Z,16.77
2018-05-29T01:58:32.691Z,16.78
2018-05-29T02:03:37.976Z,16.89
2018-05-29T02:08:44.309Z,16.94
2018-05-29T02:13:49.482Z,16.94
2018-05-29T02:18:55.921Z,17.06
2018-05-29T02:24:01.407Z,17.09
2018-05-29T02:29:13.397Z,17.04
2018-05-29T02:34:18.857Z,17.00
2018-05-29T02:39:24.953Z,17.05
2018-05-29T02:44:30.103Z,17.03
2018-05-29T02:49:38.614Z,16.97
2018-05-29T02:54:44.051Z,16.98
2018-05-29T02:59:54.211Z,16.93
2018-05-29T03:04:59.533Z,16.95
2018-05-29T03:10:08.883Z,17.08
2018-05-29T03:15:14.172Z,17.21
2018-05-29T03:20:20.478Z,17.56
2018-05-29T03:25:25.917Z,17.64
2018-05-29T03:30:31.370Z,17.89
2018-05-29T03:35:36.827Z,18.16
2018-05-29T03:40:42.184Z,18.42
2018-05-29T03:45:47.577Z,18.64
2018-05-29T03:50:55.954Z,18.69
2018-05-29T03:56:01.290Z,19.22
2018-05-29T04:01:06.633Z,19.68
2018-05-29T04:06:15.808Z,19.37
2018-05-29T04:11:21.160Z,19.64
2018-05-29T04:16:32.657Z,19.96
2018-05-29T04:21:38.154Z,20.03
2018-05-29T04:26:47.260Z,19.82
2018-05-29T04:31:52.819Z,19.70
2018-05-29T04:37:01.773Z,19.71
2018-05-29T04:42:07.294Z,19.72
2018-05-29T04:47:16.517Z,19.89
2018-05-29T04:52:21.717Z,19.95
2018-05-29T04:57:31.017Z,20.27
2018-05-29T05:02:36.470Z,20.55
2018-05-29T05:07:45.658Z,20.72
2018-05-29T05:12:51.056Z,20.93
2018-05-29T05:17:59.459Z,20.77
2018-05-29T05:23:04.585Z,20.68
2018-05-29T05:28:14.217Z,21.46
2018-05-29T05:33:19.714Z,21.95
2018-05-29T05:38:28.311Z,22.10
2018-05-29T05:43:33.906Z,22.75
2018-05-29T05:48:39.489Z,22.63
2018-05-29T05:53:44.982Z,22.87
2018-05-29T05:58:53.425Z,22.51
2018-05-29T06:03:58.855Z,22.59
2018-05-29T06:09:03.441Z,22.73
2018-05-29T06:14:08.798Z,22.60
2018-05-29T06:19:16.204Z,22.62
2018-05-29T06:24:21.569Z,22.53
2018-05-29T06:29:28.171Z,22.59
2018-05-29T06:34:33.670Z,23.35
2018-05-29T06:39:42.112Z,23.44
2018-05-29T06:44:47.426Z,23.84
2018-05-29T06:49:53.148Z,23.70
2018-05-29T06:54:58.417Z,23.75
2018-05-29T07:00:03.557Z,23.52
2018-05-29T07:05:09.754Z,23.32
2018-05-29T07:10:15.188Z,23.14
2018-05-29T07:15:20.495Z,23.42
2018-05-29T07:20:32.577Z,24.06
2018-05-29T07:25:41.993Z,23.42
2018-05-29T07:30:47.501Z,23.32
2018-05-29T07:35:54.451Z,23.38
2018-05-29T07:40:59.958Z,22.80
2018-05-29T07:46:05.431Z,22.95
2018-05-29T07:51:10.812Z,23.60
2018-05-29T07:56:19.875Z,23.24
2018-05-29T08:01:25.490Z,23.02
2018-05-29T08:06:35.065Z,23.21
2018-05-29T08:11:41.239Z,23.52
2018-05-29T08:16:46.670Z,24.29
2018-05-29T08:21:52.448Z,24.50
2018-05-29T08:26:57.994Z,24.66
2018-05-29T08:32:03.457Z,24.79
2018-05-29T08:37:12.213Z,24.67
2018-05-29T08:42:17.768Z,25.23
2018-05-29T08:47:24.025Z,25.19
2018-05-29T08:52:29.456Z,25.39
2018-05-29T08:57:41.284Z,25.28
2018-05-29T09:02:46.873Z,25.56
2018-05-29T09:07:52.472Z,25.21
2018-05-29T09:12:57.806Z,25.29
2018-05-29T09:18:03.381Z,25.06
2018-05-29T09:23:08.662Z,25.15
2018-05-29T09:28:14.166Z,24.92
2018-05-29T09:33:19.932Z,24.85
2018-05-29T09:38:25.793Z,24.97
2018-05-29T09:43:31.035Z,25.53
2018-05-29T09:48:36.634Z,25.45
2018-05-29T09:53:44.465Z,25.79
2018-05-29T09:58:51.339Z,25.43
2018-05-29T10:03:56.961Z,25.22
2018-05-29T10:09:06.026Z,25.43
2018-05-29T10:14:11.512Z,25.30
2018-05-29T10:19:20.145Z,25.74
2018-05-29T10:24:26.742Z,25.51
2018-05-29T10:29:33.279Z,25.91
2018-05-29T10:34:39.320Z,26.12
2018-05-29T10:39:45.741Z,25.64
2018-05-29T10:44:50.857Z,25.01
2018-05-29T10:49:56.192Z,24.78
2018-05-29T10:55:04.865Z,25.18
2018-05-29T11:00:10.863Z,25.33
2018-05-29T11:05:16.315Z,25.72
2018-05-29T11:10:21.941Z,25.64
2018-05-29T11:15:27.306Z,25.52
2018-05-29T11:20:32.741Z,25.32
2018-05-29T11:25:41.394Z,26.53
2018-05-29T11:30:46.945Z,26.40
2018-05-29T11:35:52.274Z,26.43
2018-05-29T11:40:57.663Z,26.02
2018-05-29T11:46:03.216Z,25.81
2018-05-29T11:51:08.591Z,26.49
2018-05-29T11:56:14.028Z,26.22
2018-05-29T12:01:19.677Z,26.23
2018-05-29T12:06:26.520Z,26.10
2018-05-29T12:11:31.788Z,25.92
2018-05-29T12:16:38.328Z,26.66
2018-05-29T12:21:43.850Z,25.52
2018-05-29T12:26:49.377Z,26.28
2018-05-29T12:31:55.027Z,26.40
2018-05-29T12:37:00.713Z,26.49
2018-05-29T12:42:06.031Z,25.79
2018-05-29T12:47:11.496Z,25.96
2018-05-29T12:52:16.952Z,25.51
2018-05-29T12:57:26.165Z,25.14
2018-05-29T13:02:31.457Z,25.88
2018-05-29T13:07:37.034Z,26.21
2018-05-29T13:12:42.387Z,26.15
2018-05-29T13:17:47.815Z,26.52
2018-05-29T13:22:53.877Z,25.23
2018-05-29T13:27:59.524Z,24.98
2018-05-29T13:33:04.772Z,25.33
2018-05-29T13:38:11.116Z,24.77
2018-05-29T13:43:16.375Z,24.50
2018-05-29T13:48:27.070Z,24.42
2018-05-29T13:53:32.011Z,24.34
2018-05-29T13:58:37.482Z,24.67
2018-05-29T14:03:42.901Z,24.50
2018-05-29T14:08:48.192Z,24.85
2018-05-29T14:13:53.588Z,25.23
2018-05-29T14:18:58.973Z,25.09
2018-05-29T14:24:04.344Z,25.69
2018-05-29T14:29:12.904Z,25.33
2018-05-29T14:34:18.374Z,25.28
2018-05-29T14:39:23.848Z,24.89
2018-05-29T14:44:30.301Z,24.37
2018-05-29T14:49:35.708Z,24.31
2018-05-29T14:54:41.170Z,24.07
2018-05-29T14:59:47.577Z,23.80
2018-05-29T15:04:55.991Z,23.50
2018-05-29T15:10:01.392Z,23.38
2018-05-29T15:15:07.751Z,23.08
2018-05-29T15:20:13.188Z,23.02
2018-05-29T15:25:22.637Z,22.89
2018-05-29T15:30:27.995Z,22.99
2018-05-29T15:35:37.165Z,22.82
2018-05-29T15:40:42.705Z,22.76
2018-05-29T15:45:53.342Z,22.57
2018-05-29T15:50:58.701Z,22.68
2018-05-29T15:56:07.505Z,22.65
2018-05-29T16:01:12.937Z,22.72
2018-05-29T16:06:19.326Z,22.73
2018-05-29T16:11:24.816Z,22.81
2018-05-29T16:16:31.272Z,22.66
2018-05-29T16:21:36.726Z,22.52
2018-05-29T16:26:45.866Z,22.41
2018-05-29T16:31:51.388Z,22.31
2018-05-29T16:36:57.746Z,22.30
2018-05-29T16:42:03.283Z,22.21
2018-05-29T16:47:08.765Z,22.14
2018-05-29T16:52:14.191Z,21.94
2018-05-29T16:57:19.515Z,21.83
2018-05-29T17:02:24.939Z,21.66
2018-05-29T17:07:30.257Z,21.66
2018-05-29T17:12:35.564Z,21.52
2018-05-29T17:17:41.771Z,21.51
2018-05-29T17:22:47.100Z,21.45
2018-05-29T17:27:52.684Z,21.38
2018-05-29T17:32:58.146Z,21.26
2018-05-29T17:38:07.739Z,21.11
2018-05-29T17:43:13.118Z,20.97
2018-05-29T17:48:18.623Z,20.99
2018-05-29T17:53:24.004Z,20.60
2018-05-29T17:58:29.565Z,20.58
2018-05-29T18:03:34.935Z,20.52
2018-05-29T18:08:40.501Z,20.44
2018-05-29T18:13:46.192Z,20.38
2018-05-29T18:18:51.480Z,20.35
2018-05-29T18:23:57.747Z,20.34
2018-05-29T18:29:03.122Z,20.42
2018-05-29T18:34:08.630Z,20.46
2018-05-29T18:39:15.391Z,20.46
2018-05-29T18:44:21.741Z,20.55
2018-05-29T18:49:27.283Z,20.54
2018-05-29T18:54:32.877Z,20.53
2018-05-29T18:59:38.238Z,20.58
2018-05-29T19:04:49.135Z,20.64
2018-05-29T19:09:54.475Z,20.63
2018-05-29T19:15:00.421Z,20.60
2018-05-29T19:20:05.788Z,20.60
2018-05-29T19:25:14.577Z,20.59
2018-05-29T19:30:19.838Z,20.54
2018-05-29T19:35:26.352Z,20.56
2018-05-29T19:40:32.002Z,20.55
2018-05-29T19:45:40.812Z,20.53
2018-05-29T19:50:46.273Z,20.51
2018-05-29T19:55:52.570Z,20.48
2018-05-29T20:00:57.853Z,20.52
2018-05-29T20:06:06.412Z,20.55
2018-05-29T20:11:11.614Z,20.53
2018-05-29T20:16:17.102Z,20.49
2018-05-29T20:21:23.710Z,20.49
2018-05-29T20:26:31.010Z,20.41
2018-05-29T20:31:37.925Z,20.35
2018-05-29T20:36:43.482Z,20.32
2018-05-29T20:41:48.987Z,20.29
2018-05-29T20:46:54.641Z,20.23
2018-05-29T20:52:00.082Z,20.17
2018-05-29T20:57:05.482Z,20.12
2018-05-29T21:02:10.804Z,20.01
2018-05-29T21:07:19.557Z,19.98
2018-05-29T21:12:25.000Z,19.92
2018-05-29T21:17:30.991Z,19.85
2018-05-29T21:22:36.108Z,19.77
2018-05-29T21:27:42.537Z,19.76
2018-05-29T21:32:47.971Z,19.60
2018-05-29T21:37:58.802Z,19.60
2018-05-29T21:43:04.100Z,19.60
2018-05-29T21:48:09.651Z,19.53
2018-05-29T21:53:15.006Z,19.59
2018-05-29T21:58:20.505Z,19.52
2018-05-29T22:03:25.835Z,19.45
2018-05-29T22:08:31.245Z,19.37
2018-05-29T22:13:37.495Z,19.37
2018-05-29T22:18:42.697Z,19.29
2018-05-29T22:23:49.030Z,19.30
2018-05-29T22:28:54.219Z,19.31
2018-05-29T22:33:59.766Z,19.31
2018-05-29T22:39:04.357Z,19.34
2018-05-29T22:44:09.856Z,19.36
2018-05-29T22:49:15.287Z,19.39
2018-05-29T22:54:24.259Z,19.38
2018-05-29T22:59:29.547Z,19.35
2018-05-29T23:04:38.138Z,19.29
2018-05-29T23:09:43.584Z,19.30
2018-05-29T23:14:49.195Z,19.17
2018-05-29T23:19:54.515Z,19.10
2018-05-29T23:25:09.650Z,19.15
2018-05-29T23:30:14.758Z,19.19
2018-05-29T23:35:25.754Z,19.19
2018-05-29T23:40:30.897Z,19.24
2018-05-29T23:45:39.725Z,19.17
2018-05-29T23:50:45.006Z,19.15
2018-05-29T23:55:51.355Z,19.13
